createdAt,value
2019-05-01T00:00:24.267Z,15.40
2019-05-01T00:02:57.343Z,14.75
2019-05-01T00:05:36.857Z,15.80
2019-05-01T00:08:06.421Z,15.10
2019-05-01T00:10:35.514Z,14.70
2019-05-01T00:13:05.555Z,13.93
2019-05-01T00:15:35.880Z,14.00
2019-05-01T00:18:04.737Z,13.22
2019-05-01T00:20:33.323Z,13.20
2019-05-01T00:23:01.897Z,12.40
2019-05-01T00:25:30.507Z,12.98
2019-05-01T00:27:59.085Z,11.83
2019-05-01T00:30:30.071Z,13.00
2019-05-01T00:32:59.886Z,12.60
2019-05-01T00:35:28.501Z,11.90
2019-05-01T00:37:57.077Z,11.48
2019-05-01T00:40:25.786Z,12.23
2019-05-01T00:42:54.426Z,11.78
2019-05-01T00:45:22.989Z,11.50
2019-05-01T00:47:52.455Z,11.35
2019-05-01T00:50:21.073Z,10.93
2019-05-01T00:52:49.715Z,10.78
2019-05-01T00:55:35.808Z,11.38
2019-05-01T00:58:07.674Z,11.33
2019-05-01T01:00:43.100Z,11.33
2019-05-01T01:03:09.235Z,11.00
2019-05-01T01:05:37.930Z,10.58
2019-05-01T01:08:06.501Z,11.18
2019-05-01T01:10:35.250Z,11.93
2019-05-01T01:13:03.995Z,11.70
2019-05-01T01:15:32.883Z,11.55
2019-05-01T01:18:01.472Z,11.30
2019-05-01T01:20:30.118Z,11.75
2019-05-01T01:22:58.772Z,10.95
2019-05-01T01:25:27.455Z,11.08
2019-05-01T01:27:56.148Z,11.70
2019-05-01T01:30:24.808Z,11.10
2019-05-01T01:32:53.484Z,11.48
2019-05-01T01:35:22.202Z,11.20
2019-05-01T01:37:50.760Z,10.38
2019-05-01T01:40:19.657Z,11.80
2019-05-01T01:42:50.254Z,10.80
2019-05-01T01:45:26.685Z,12.03
2019-05-01T01:48:15.586Z,11.70
2019-05-01T01:50:45.569Z,12.18
2019-05-01T01:53:17.335Z,12.35
2019-05-01T01:55:46.713Z,11.50
2019-05-01T01:58:16.576Z,12.25
2019-05-01T02:01:08.325Z,11.10
2019-05-01T02:03:28.517Z,11.20
2019-05-01T02:05:57.172Z,11.50
2019-05-01T02:08:25.814Z,11.00
2019-05-01T02:10:54.771Z,11.40
2019-05-01T02:13:23.856Z,12.03
2019-05-01T02:15:52.544Z,12.30
2019-05-01T02:18:21.192Z,11.33
2019-05-01T02:20:49.768Z,11.78
2019-05-01T02:23:18.350Z,11.03
2019-05-01T02:25:46.938Z,11.93
2019-05-01T02:28:26.217Z,11.50
2019-05-01T02:31:26.977Z,11.85
2019-05-01T02:33:44.917Z,11.90
2019-05-01T02:36:15.842Z,11.60
2019-05-01T02:38:47.027Z,11.43
2019-05-01T02:41:16.955Z,11.78
2019-05-01T02:43:48.600Z,11.50
2019-05-01T02:46:19.223Z,11.20
2019-05-01T02:48:53.421Z,11.53
2019-05-01T02:51:22.629Z,11.65
2019-05-01T02:53:51.472Z,11.18
2019-05-01T02:56:37.522Z,11.15
2019-05-01T02:59:08.559Z,11.18
2019-05-01T03:01:46.972Z,11.00
2019-05-01T03:04:10.156Z,11.55
2019-05-01T03:06:40.026Z,11.68
2019-05-01T03:09:08.739Z,11.22
2019-05-01T03:11:40.060Z,11.05
2019-05-01T03:14:11.712Z,10.50
2019-05-01T03:16:42.484Z,12.10
2019-05-01T03:19:30.313Z,10.70
2019-05-01T03:22:01.198Z,10.82
2019-05-01T03:24:30.324Z,9.98
2019-05-01T03:26:59.424Z,10.23
2019-05-01T03:29:28.323Z,9.48
2019-05-01T03:32:15.346Z,10.35
2019-05-01T03:34:27.945Z,11.03
2019-05-01T03:36:57.546Z,9.85
2019-05-01T03:39:26.669Z,9.90
2019-05-01T03:41:55.476Z,10.25
2019-05-01T03:44:24.212Z,9.78
2019-05-01T03:46:53.545Z,10.75
2019-05-01T03:49:23.390Z,11.60
2019-05-01T03:51:53.208Z,10.82
2019-05-01T03:54:24.062Z,10.15
2019-05-01T03:56:52.576Z,10.82
2019-05-01T03:59:21.534Z,10.63
2019-05-01T04:02:10.154Z,10.90
2019-05-01T04:04:39.087Z,11.08
2019-05-01T04:07:07.670Z,10.88
2019-05-01T04:09:36.959Z,10.53
2019-05-01T04:12:07.160Z,9.53
2019-05-01T04:14:39.150Z,10.38
2019-05-01T04:17:08.148Z,9.53
2019-05-01T04:19:39.305Z,9.23
2019-05-01T04:22:13.127Z,10.05
2019-05-01T04:24:43.663Z,9.43
2019-05-01T04:27:15.001Z,9.93
2019-05-01T04:29:54.300Z,9.40
2019-05-01T04:32:24.691Z,9.03
2019-05-01T04:34:55.080Z,9.23
2019-05-01T04:37:25.619Z,9.20
2019-05-01T04:39:54.851Z,9.48
2019-05-01T04:42:23.591Z,9.48
2019-05-01T04:44:52.995Z,9.80
2019-05-01T04:47:21.942Z,9.53
2019-05-01T04:49:51.353Z,9.93
2019-05-01T04:52:20.300Z,9.98
2019-05-01T04:54:49.126Z,10.48
2019-05-01T04:57:17.939Z,10.05
2019-05-01T04:59:46.665Z,10.60
2019-05-01T05:02:17.056Z,9.83
2019-05-01T05:04:45.855Z,9.00
2019-05-01T05:07:14.419Z,9.20
2019-05-01T05:09:47.317Z,8.33
2019-05-01T05:12:34.191Z,8.38
2019-05-01T05:15:20.673Z,8.25
2019-05-01T05:17:49.906Z,9.10
2019-05-01T05:20:18.555Z,8.55
2019-05-01T05:22:47.516Z,8.40
2019-05-01T05:25:16.351Z,8.28
2019-05-01T05:27:46.481Z,7.85
2019-05-01T05:30:15.148Z,7.90
2019-05-01T05:32:46.040Z,7.47
2019-05-01T05:35:15.557Z,7.33
2019-05-01T05:37:48.861Z,7.47
2019-05-01T05:40:19.267Z,6.78
2019-05-01T05:42:47.866Z,6.95
2019-05-01T05:45:16.768Z,7.03
2019-05-01T05:47:45.491Z,7.03
2019-05-01T05:50:15.871Z,6.58
2019-05-01T05:52:49.172Z,6.60
2019-05-01T05:55:21.876Z,6.35
2019-05-01T05:57:56.969Z,7.22
2019-05-01T06:00:28.311Z,6.90
2019-05-01T06:03:04.439Z,6.10
2019-05-01T06:05:39.818Z,6.97
2019-05-01T06:08:16.181Z,7.35
2019-05-01T06:10:58.657Z,7.22
2019-05-01T06:13:44.748Z,6.87
2019-05-01T06:16:16.124Z,6.90
2019-05-01T06:18:58.952Z,6.80
2019-05-01T06:21:29.232Z,6.17
2019-05-01T06:24:06.324Z,6.40
2019-05-01T06:26:37.271Z,6.65
2019-05-01T06:29:03.183Z,6.72
2019-05-01T06:31:33.595Z,6.08
2019-05-01T06:34:02.424Z,6.10
2019-05-01T06:36:31.635Z,6.42
2019-05-01T06:39:00.841Z,5.72
2019-05-01T06:41:33.700Z,5.87
2019-05-01T06:44:04.119Z,5.70
2019-05-01T06:49:29.322Z,5.62
2019-05-01T06:51:59.881Z,5.75
2019-05-01T06:54:30.716Z,6.67
2019-05-01T06:57:01.845Z,6.60
2019-05-01T06:59:33.422Z,5.35
2019-05-01T07:02:02.705Z,5.35
2019-05-01T07:04:37.921Z,5.47
2019-05-01T07:07:06.658Z,5.80
2019-05-01T07:09:35.643Z,5.78
2019-05-01T07:12:06.591Z,5.42
2019-05-01T07:14:35.610Z,4.95
2019-05-01T07:17:04.539Z,5.95
2019-05-01T07:19:42.610Z,6.12
2019-05-01T07:22:11.212Z,5.40
2019-05-01T07:24:40.229Z,6.10
2019-05-01T07:27:08.867Z,6.50
2019-05-01T07:29:44.463Z,5.78
2019-05-01T07:32:09.931Z,6.15
2019-05-01T07:34:38.683Z,5.42
2019-05-01T07:37:08.647Z,5.80
2019-05-01T07:39:37.539Z,5.85
2019-05-01T07:42:23.963Z,5.55
2019-05-01T07:44:57.131Z,5.42
2019-05-01T07:47:36.248Z,7.15
2019-05-01T07:50:10.247Z,6.08
2019-05-01T07:52:39.459Z,6.33
2019-05-01T07:55:13.187Z,6.75
2019-05-01T07:57:41.283Z,5.15
2019-05-01T08:00:28.695Z,5.73
2019-05-01T08:02:57.427Z,5.10
2019-05-01T08:05:26.100Z,5.85
2019-05-01T08:07:54.702Z,5.17
2019-05-01T08:10:25.519Z,5.12
2019-05-01T08:12:55.411Z,5.30
2019-05-01T08:15:27.237Z,5.10
2019-05-01T08:17:55.573Z,5.80
2019-05-01T08:20:25.808Z,5.00
2019-05-01T08:22:54.407Z,4.70
2019-05-01T08:25:28.588Z,10.18
2019-05-01T08:33:14.641Z,5.30
2019-05-01T08:35:40.851Z,4.78
2019-05-01T08:38:09.532Z,4.90
2019-05-01T08:40:38.118Z,4.72
2019-05-01T08:43:06.806Z,4.15
2019-05-01T08:45:53.448Z,4.42
2019-05-01T08:48:30.761Z,4.05
2019-05-01T08:51:00.429Z,4.15
2019-05-01T08:53:29.056Z,4.17
2019-05-01T08:55:57.694Z,4.90
2019-05-01T08:58:26.287Z,4.62
2019-05-01T09:00:54.854Z,4.40
2019-05-01T09:03:23.417Z,4.53
2019-05-01T09:05:56.786Z,5.08
2019-05-01T09:08:22.317Z,4.55
2019-05-01T09:10:54.701Z,5.08
2019-05-01T09:13:23.745Z,5.28
2019-05-01T09:15:51.489Z,4.30
2019-05-01T09:18:20.119Z,4.70
2019-05-01T09:20:50.340Z,4.65
2019-05-01T09:23:18.906Z,3.87
2019-05-01T09:25:55.274Z,4.42
2019-05-01T09:28:39.728Z,4.33
2019-05-01T09:31:09.187Z,4.00
2019-05-01T09:33:37.758Z,4.47
2019-05-01T09:36:06.475Z,4.33
2019-05-01T09:38:35.366Z,4.17
2019-05-01T09:41:04.274Z,4.65
2019-05-01T09:43:35.732Z,4.50
2019-05-01T09:46:03.811Z,4.62
2019-05-01T09:48:32.496Z,4.60
2019-05-01T09:51:06.630Z,4.55
2019-05-01T09:53:52.766Z,4.62
2019-05-01T09:56:23.285Z,4.58
2019-05-01T09:58:51.860Z,4.67
2019-05-01T10:01:24.619Z,4.85
2019-05-01T10:03:54.690Z,4.50
2019-05-01T10:06:21.007Z,4.80
2019-05-01T10:08:49.632Z,4.55
2019-05-01T10:11:18.218Z,4.50
2019-05-01T10:13:46.781Z,4.80
2019-05-01T10:16:15.579Z,3.85
2019-05-01T10:18:44.191Z,4.00
2019-05-01T10:21:12.762Z,3.98
2019-05-01T10:23:41.343Z,4.40
2019-05-01T10:26:11.621Z,3.85
2019-05-01T10:28:49.502Z,3.77
2019-05-01T10:31:16.787Z,4.30
2019-05-01T10:33:49.922Z,4.00
2019-05-01T10:36:32.127Z,4.15
2019-05-01T10:39:00.758Z,4.03
2019-05-01T10:41:29.524Z,4.47
2019-05-01T10:43:58.108Z,4.37
2019-05-01T10:46:26.764Z,4.15
2019-05-01T10:48:57.285Z,4.20
2019-05-01T10:51:25.636Z,4.17
2019-05-01T10:53:54.225Z,3.85
2019-05-01T10:56:23.091Z,3.70
2019-05-01T10:58:52.219Z,3.90
2019-05-01T11:01:38.279Z,4.10
2019-05-01T11:04:07.037Z,3.67
2019-05-01T11:06:35.675Z,4.08
2019-05-01T11:09:06.272Z,3.67
2019-05-01T11:11:35.057Z,3.98
2019-05-01T11:14:03.804Z,4.35
2019-05-01T11:16:32.440Z,3.67
2019-05-01T11:19:01.075Z,4.22
2019-05-01T11:21:29.723Z,4.30
2019-05-01T11:23:58.308Z,4.55
2019-05-01T11:26:26.948Z,3.90
2019-05-01T11:28:55.504Z,3.90
2019-05-01T11:31:26.109Z,3.33
2019-05-01T11:33:57.306Z,3.80
2019-05-01T11:36:36.867Z,3.85
2019-05-01T11:39:08.631Z,3.62
2019-05-01T11:41:47.578Z,4.45
2019-05-01T11:44:16.148Z,3.50
2019-05-01T11:46:44.704Z,3.90
2019-05-01T11:49:13.378Z,3.85
2019-05-01T11:51:42.324Z,4.00
2019-05-01T11:54:10.935Z,3.90
2019-05-01T11:56:40.494Z,4.10
2019-05-01T11:59:09.083Z,3.90
2019-05-01T12:01:37.676Z,3.65
2019-05-01T12:04:06.379Z,3.67
2019-05-01T12:06:34.970Z,3.60
2019-05-01T12:09:05.525Z,4.30
2019-05-01T12:11:36.056Z,3.77
2019-05-01T12:14:05.059Z,4.00
2019-05-01T12:16:53.675Z,3.80
2019-05-01T12:19:25.404Z,3.92
2019-05-01T12:21:53.956Z,3.58
2019-05-01T12:24:22.501Z,3.67
2019-05-01T12:26:51.080Z,4.45
2019-05-01T12:29:19.735Z,4.10
2019-05-01T12:31:48.295Z,3.70
2019-05-01T12:34:16.931Z,3.67
2019-05-01T12:36:46.408Z,3.83
2019-05-01T12:39:18.646Z,4.05
2019-05-01T12:44:28.609Z,4.05
2019-05-01T12:47:01.772Z,3.70
2019-05-01T12:49:30.503Z,3.60
2019-05-01T12:52:10.223Z,4.10
2019-05-01T12:54:33.353Z,4.70
2019-05-01T12:57:02.775Z,3.72
2019-05-01T12:59:31.360Z,3.50
2019-05-01T13:02:00.006Z,3.90
2019-05-01T13:04:28.574Z,3.55
2019-05-01T13:06:59.102Z,3.17
2019-05-01T13:09:27.647Z,3.42
2019-05-01T13:11:56.226Z,3.87
2019-05-01T13:14:24.803Z,3.15
2019-05-01T13:16:53.449Z,3.75
2019-05-01T13:19:22.062Z,3.10
2019-05-01T13:21:50.635Z,3.45
2019-05-01T13:24:19.192Z,3.60
2019-05-01T13:26:49.430Z,3.20
2019-05-01T13:29:25.669Z,3.70
2019-05-01T13:31:56.814Z,3.62
2019-05-01T13:34:25.381Z,3.65
2019-05-01T13:37:02.843Z,3.65
2019-05-01T13:39:24.215Z,3.27
2019-05-01T13:41:52.865Z,3.72
2019-05-01T13:44:21.456Z,3.90
2019-05-01T13:46:50.032Z,3.30
2019-05-01T13:49:19.601Z,3.67
2019-05-01T13:51:48.164Z,3.42
2019-05-01T13:54:16.732Z,3.72
2019-05-01T13:56:45.410Z,4.05
2019-05-01T13:59:14.946Z,2.92
2019-05-01T14:01:43.544Z,3.83
2019-05-01T14:04:13.452Z,3.83
2019-05-01T14:06:42.027Z,2.95
2019-05-01T14:09:12.224Z,3.08
2019-05-01T14:11:40.902Z,3.30
2019-05-01T14:14:09.467Z,3.12
2019-05-01T14:16:38.038Z,3.20
2019-05-01T14:19:06.634Z,3.37
2019-05-01T14:21:42.521Z,3.02
2019-05-01T14:24:30.900Z,3.05
2019-05-01T14:26:59.570Z,3.40
2019-05-01T14:29:28.144Z,3.00
2019-05-01T14:31:56.732Z,2.70
2019-05-01T14:34:25.326Z,3.00
2019-05-01T14:36:53.888Z,3.15
2019-05-01T14:39:22.444Z,2.70
2019-05-01T14:41:52.034Z,2.50
2019-05-01T14:44:20.606Z,2.95
2019-05-01T14:46:49.168Z,2.85
2019-05-01T14:49:17.844Z,3.00
2019-05-01T14:51:46.488Z,2.65
2019-05-01T14:54:15.067Z,2.80
2019-05-01T14:56:43.673Z,2.80
2019-05-01T14:59:12.273Z,2.87
2019-05-01T15:01:40.883Z,2.60
2019-05-01T15:04:09.431Z,2.83
2019-05-01T15:06:38.143Z,3.17
2019-05-01T15:09:08.247Z,2.62
2019-05-01T15:11:37.579Z,2.87
2019-05-01T15:14:16.937Z,2.55
2019-05-01T15:17:04.290Z,3.05
2019-05-01T15:19:34.534Z,2.80
2019-05-01T15:22:03.070Z,2.80
2019-05-01T15:24:31.651Z,2.85
2019-05-01T15:27:00.236Z,3.05
2019-05-01T15:29:28.864Z,3.05
2019-05-01T15:31:57.489Z,2.98
2019-05-01T15:34:26.042Z,2.90
2019-05-01T15:36:54.603Z,3.08
2019-05-01T15:39:24.850Z,2.65
2019-05-01T15:42:03.975Z,2.55
2019-05-01T15:44:34.205Z,3.35
2019-05-01T15:47:02.800Z,3.25
2019-05-01T15:49:31.744Z,3.15
2019-05-01T15:52:00.317Z,3.17
2019-05-01T15:54:28.893Z,3.20
2019-05-01T15:56:57.448Z,3.22
2019-05-01T15:59:26.067Z,3.60
2019-05-01T16:01:54.642Z,3.40
2019-05-01T16:04:24.236Z,3.83
2019-05-01T16:06:52.849Z,3.58
2019-05-01T16:09:22.371Z,3.60
2019-05-01T16:12:08.651Z,3.60
2019-05-01T16:14:37.387Z,3.77
2019-05-01T16:17:06.046Z,4.47
2019-05-01T16:19:34.610Z,4.08
2019-05-01T16:22:03.361Z,4.10
2019-05-01T16:24:31.916Z,3.77
2019-05-01T16:27:00.556Z,3.80
2019-05-01T16:29:29.160Z,3.98
2019-05-01T16:31:57.758Z,4.15
2019-05-01T16:34:26.383Z,4.70
2019-05-01T16:36:55.137Z,4.58
2019-05-01T16:39:41.173Z,4.75
2019-05-01T16:42:09.838Z,4.62
2019-05-01T16:44:38.542Z,4.35
2019-05-01T16:47:07.103Z,4.03
2019-05-01T16:49:35.968Z,4.53
2019-05-01T16:52:04.889Z,3.87
2019-05-01T16:54:33.523Z,4.30
2019-05-01T16:57:02.273Z,3.98
2019-05-01T16:59:30.944Z,4.50
2019-05-01T17:02:01.584Z,4.03
2019-05-01T17:04:31.895Z,4.70
2019-05-01T17:07:18.080Z,4.15
2019-05-01T17:09:51.082Z,4.62
2019-05-01T17:12:21.768Z,4.72
2019-05-01T17:14:50.383Z,4.30
2019-05-01T17:17:19.921Z,4.70
2019-05-01T17:19:48.800Z,4.90
2019-05-01T17:22:17.698Z,5.00
2019-05-01T17:24:46.266Z,4.70
2019-05-01T17:27:14.861Z,4.42
2019-05-01T17:29:43.443Z,4.40
2019-05-01T17:32:13.676Z,4.58
2019-05-01T17:34:42.577Z,5.42
2019-05-01T17:37:11.220Z,4.85
2019-05-01T17:39:39.821Z,5.03
2019-05-01T17:42:08.454Z,4.72
2019-05-01T17:44:39.508Z,5.15
2019-05-01T17:47:07.285Z,4.78
2019-05-01T17:49:35.858Z,5.08
2019-05-01T17:52:04.622Z,5.28
2019-05-01T17:54:33.200Z,4.78
2019-05-01T17:57:01.777Z,4.62
2019-05-01T17:59:31.308Z,4.97
2019-05-01T18:02:20.919Z,4.65
2019-05-01T18:04:51.204Z,4.65
2019-05-01T18:07:20.784Z,4.62
2019-05-01T18:09:51.373Z,4.85
2019-05-01T18:12:23.309Z,4.67
2019-05-01T18:14:50.097Z,4.20
2019-05-01T18:17:18.751Z,5.08
2019-05-01T18:19:47.329Z,4.72
2019-05-01T18:22:17.639Z,5.08
2019-05-01T18:24:58.146Z,4.87
2019-05-01T18:27:28.852Z,5.00
2019-05-01T18:29:59.121Z,5.20
2019-05-01T18:32:32.472Z,4.42
2019-05-01T18:35:01.184Z,5.62
2019-05-01T18:37:35.044Z,5.35
2019-05-01T18:40:01.741Z,5.15
2019-05-01T18:42:30.511Z,5.12
2019-05-01T18:44:59.072Z,5.20
2019-05-01T18:47:28.199Z,5.00
2019-05-01T18:49:56.901Z,4.97
2019-05-01T18:52:25.528Z,5.08
2019-05-01T18:54:54.107Z,5.15
2019-05-01T18:57:22.695Z,5.00
2019-05-01T18:59:52.266Z,5.20
2019-05-01T19:02:24.965Z,5.37
2019-05-01T19:04:51.048Z,5.20
2019-05-01T19:07:22.738Z,5.22
2019-05-01T19:09:51.387Z,5.83
2019-05-01T19:12:20.232Z,5.45
2019-05-01T19:14:48.895Z,5.40
2019-05-01T19:17:17.629Z,5.37
2019-05-01T19:19:46.173Z,5.85
2019-05-01T19:22:15.778Z,5.65
2019-05-01T19:24:44.442Z,5.97
2019-05-01T19:27:14.305Z,6.10
2019-05-01T19:29:44.224Z,6.92
2019-05-01T19:32:13.233Z,6.30
2019-05-01T19:34:41.967Z,6.35
2019-05-01T19:37:10.948Z,6.03
2019-05-01T19:39:43.734Z,5.55
2019-05-01T19:42:10.155Z,6.40
2019-05-01T19:44:38.770Z,6.03
2019-05-01T19:47:07.962Z,6.70
2019-05-01T19:49:36.683Z,6.33
2019-05-01T19:52:05.422Z,6.33
2019-05-01T19:54:33.976Z,6.78
2019-05-01T19:57:02.553Z,5.95
2019-05-01T19:59:31.214Z,6.72
2019-05-01T20:01:59.906Z,6.05
2019-05-01T20:04:28.523Z,5.97
2019-05-01T20:06:57.255Z,6.60
2019-05-01T20:09:27.067Z,5.83
2019-05-01T20:11:55.685Z,6.25
2019-05-01T20:14:24.387Z,6.72
2019-05-01T20:16:53.159Z,6.15
2019-05-01T20:19:21.905Z,6.78
2019-05-01T20:21:50.560Z,5.85
2019-05-01T20:24:19.412Z,6.25
2019-05-01T20:26:48.163Z,6.03
2019-05-01T20:29:17.766Z,6.40
2019-05-01T20:31:50.841Z,6.40
2019-05-01T20:34:18.456Z,6.22
2019-05-01T20:36:47.049Z,5.90
2019-05-01T20:39:16.678Z,5.83
2019-05-01T20:41:45.406Z,6.25
2019-05-01T20:44:18.712Z,6.25
2019-05-01T20:46:44.304Z,6.03
2019-05-01T20:49:12.957Z,5.85
2019-05-01T20:51:41.524Z,6.08
2019-05-01T20:54:11.167Z,5.42
2019-05-01T20:56:41.352Z,5.33
2019-05-01T20:59:09.955Z,5.90
2019-05-01T21:01:38.606Z,5.30
2019-05-01T21:04:08.812Z,5.10
2019-05-01T21:06:43.203Z,4.97
2019-05-01T21:09:13.706Z,5.33
2019-05-01T21:11:47.190Z,5.45
2019-05-01T21:14:22.262Z,5.10
2019-05-01T21:16:44.970Z,4.80
2019-05-01T21:19:13.614Z,4.90
2019-05-01T21:21:43.490Z,4.70
2019-05-01T21:24:13.995Z,4.90
2019-05-01T21:26:43.378Z,5.60
2019-05-01T21:29:13.838Z,5.37
2019-05-01T21:31:44.084Z,5.42
2019-05-01T21:34:14.522Z,5.40
2019-05-01T21:36:47.476Z,5.05
2019-05-01T21:39:14.982Z,5.75
2019-05-01T21:41:43.543Z,5.10
2019-05-01T21:44:13.116Z,5.10
2019-05-01T21:46:43.190Z,5.25
2019-05-01T21:49:12.996Z,5.28
2019-05-01T21:51:45.925Z,5.65
2019-05-01T21:54:16.083Z,5.33
2019-05-01T21:56:42.853Z,5.47
2019-05-01T21:59:11.525Z,5.30
2019-05-01T22:01:40.265Z,5.22
2019-05-01T22:04:09.728Z,5.50
2019-05-01T22:06:38.370Z,5.40
2019-05-01T22:09:10.495Z,6.80
2019-05-01T22:11:39.191Z,5.83
2019-05-01T22:14:09.810Z,5.70
2019-05-01T22:16:38.386Z,5.58
2019-05-01T22:19:08.740Z,5.72
2019-05-01T22:21:53.620Z,5.67
2019-05-01T22:24:29.296Z,5.85
2019-05-01T22:27:02.234Z,6.05
2019-05-01T22:29:38.748Z,5.97
2019-05-01T22:32:17.782Z,6.15
2019-05-01T22:34:50.833Z,6.00
2019-05-01T22:37:19.419Z,6.80
2019-05-01T22:39:49.651Z,6.40
2019-05-01T22:42:18.360Z,6.40
2019-05-01T22:44:47.260Z,7.33
2019-05-01T22:47:17.469Z,7.40
2019-05-01T22:49:46.051Z,7.33
2019-05-01T22:52:14.766Z,7.20
2019-05-01T22:54:48.595Z,7.55
2019-05-01T22:57:15.294Z,7.67
2019-05-01T22:59:43.903Z,7.58
2019-05-01T23:02:28.331Z,7.85
2019-05-01T23:04:58.023Z,7.78
2019-05-01T23:07:26.849Z,8.30
2019-05-01T23:09:59.250Z,8.43
2019-05-01T23:12:25.679Z,8.98
2019-05-01T23:14:54.268Z,9.15
2019-05-01T23:17:42.418Z,10.15
2019-05-01T23:20:11.536Z,10.08
2019-05-01T23:22:40.138Z,10.43
2019-05-01T23:25:08.996Z,10.98
2019-05-01T23:27:37.664Z,11.48
2019-05-01T23:30:08.234Z,11.68
2019-05-01T23:32:36.800Z,12.55
2019-05-01T23:35:08.398Z,12.78
2019-05-01T23:37:37.083Z,11.93
2019-05-01T23:40:10.941Z,12.53
2019-05-01T23:42:37.570Z,12.58
2019-05-01T23:45:06.903Z,12.63
2019-05-01T23:47:35.559Z,14.53
2019-05-01T23:50:05.052Z,13.40
2019-05-01T23:52:33.933Z,12.88
2019-05-01T23:55:08.015Z,13.58
2019-05-01T23:57:37.581Z,13.43
